Time;durP1;ratioP1;P1;durP2;ratioP2;P2;SDS_P1;SDS_P2;PMS_P1;PMS_P2;Temp;Humidity;BMP_temperature;BMP_pressure;BME280_temperature;BME280_humidity;BME280_pressure;Samples;Min_cycle;Max_cycle;Signal;HPM_P1;HPM_P2
2022/01/02 00:00:14;;;;;;;9.68;5.68;;;12.20;99.90;;;;;;5056183;28;20041;-66
2022/01/02 00:02:41;;;;;;;10.43;6.25;;;12.00;99.90;;;;;;5055368;28;20127;-66
2022/01/02 00:05:12;;;;;;;14.85;6.25;;;12.10;99.90;;;;;;5056109;28;20041;-66
2022/01/02 00:08:12;;;;;;;12.52;6.68;;;12.10;99.90;;;;;;5055853;28;20494;-66
2022/01/02 00:10:58;;;;;;;10.60;5.88;;;12.10;99.90;;;;;;5053768;28;20422;-66
2022/01/02 00:13:35;;;;;;;10.98;6.80;;;11.90;99.90;;;;;;5055765;28;20548;-66
2022/01/02 00:16:05;;;;;;;11.30;6.45;;;11.90;99.90;;;;;;5054647;28;20045;-66
2022/01/02 00:18:37;;;;;;;13.73;6.18;;;11.90;99.90;;;;;;5055414;28;20036;-66
2022/01/02 00:21:07;;;;;;;12.43;6.35;;;11.90;99.90;;;;;;5057002;28;20112;-66
2022/01/02 00:23:41;;;;;;;15.95;7.07;;;;;;;;;;5055811;28;20037;-66
2022/01/02 00:26:15;;;;;;;12.50;6.63;;;11.80;99.90;;;;;;5036519;28;20572;-66
2022/01/02 00:28:42;;;;;;;12.82;6.25;;;12.00;99.90;;;;;;5036296;28;20042;-66
2022/01/02 00:31:08;;;;;;;14.52;6.72;;;11.80;99.90;;;;;;5036635;28;20033;-66
2022/01/02 00:33:35;;;;;;;13.68;7.13;;;11.90;99.90;;;;;;5036098;28;20045;-66
2022/01/02 00:36:04;;;;;;;12.52;7.13;;;12.10;99.90;;;;;;5035897;28;20398;-66
2022/01/02 00:38:30;;;;;;;15.10;6.35;;;12.00;99.90;;;;;;5036238;28;20160;-66
2022/01/02 00:40:57;;;;;;;12.73;7.63;;;11.90;99.90;;;;;;5043482;28;20068;-66
2022/01/02 00:43:45;;;;;;;14.85;7.22;;;11.80;99.90;;;;;;5056262;28;20094;-66
2022/01/02 00:46:15;;;;;;;14.30;7.28;;;11.80;99.90;;;;;;5055525;28;20486;-66
2022/01/02 00:48:44;;;;;;;13.68;6.50;;;11.80;99.90;;;;;;5055561;28;20491;-66
2022/01/02 00:51:47;;;;;;;10.55;6.65;;;11.70;99.90;;;;;;5055033;28;20041;-66
2022/01/02 00:54:17;;;;;;;13.90;7.50;;;11.90;99.90;;;;;;5069036;28;20483;-66
2022/01/02 00:56:45;;;;;;;12.18;7.30;;;11.70;99.90;;;;;;5054688;28;20032;-67
2022/01/02 00:59:27;;;;;;;13.00;6.55;;;11.70;99.90;;;;;;5037828;28;20402;-66
2022/01/02 01:01:59;;;;;;;16.65;7.45;;;11.70;99.90;;;;;;5054328;28;20068;-66
2022/01/02 01:04:27;;;;;;;11.93;7.25;;;12.00;99.90;;;;;;5054269;28;20053;-66
2022/01/02 01:06:56;;;;;;;11.93;7.30;;;11.80;99.90;;;;;;5054301;28;20124;-66
2022/01/02 01:09:22;;;;;;;17.05;7.93;;;11.70;99.90;;;;;;5037376;28;20041;-66
2022/01/02 01:11:48;;;;;;;16.52;7.63;;;11.60;99.90;;;;;;5053469;28;20090;-66
2022/01/02 01:14:14;;;;;;;14.05;7.30;;;11.90;99.90;;;;;;5053639;28;20127;-66
2022/01/02 01:16:40;;;;;;;18.70;8.77;;;11.90;99.90;;;;;;5036788;28;20076;-66
2022/01/02 01:19:05;;;;;;;18.05;7.95;;;11.70;99.90;;;;;;5053871;28;20403;-66
2022/01/02 01:21:31;;;;;;;13.57;7.25;;;;;;;;;;5053688;28;20087;-66
2022/01/02 01:23:57;;;;;;;15.43;8.15;;;11.60;99.90;;;;;;5036776;28;20045;-65
2022/01/02 01:26:22;;;;;;;15.60;8.25;;;11.90;99.90;;;;;;5054846;28;20033;-66
2022/01/02 01:28:48;;;;;;;13.38;7.18;;;11.60;99.90;;;;;;5053588;28;20511;-66
2022/01/02 01:31:14;;;;;;;18.80;7.88;;;13.20;99.90;;;;;;5053518;28;20159;-65
2022/01/02 01:33:39;;;;;;;14.77;8.13;;;11.70;99.90;;;;;;5055838;28;20083;-66
2022/01/02 01:36:05;;;;;;;15.32;7.50;;;11.70;99.90;;;;;;5053483;28;20428;-65
2022/01/02 01:38:30;;;;;;;16.13;7.88;;;11.60;99.90;;;;;;5055627;28;20045;-66
2022/01/02 01:41:19;;;;;;;17.67;8.25;;;11.70;99.90;;;;;;5055285;28;20048;-66
2022/01/02 01:44:07;;;;;;;11.40;7.53;;;11.50;99.90;;;;;;5054138;28;20069;-66
2022/01/02 01:46:34;;;;;;;16.45;8.10;;;11.50;99.90;;;;;;5037565;28;20041;-66
2022/01/02 01:49:00;;;;;;;14.85;8.75;;;11.60;99.90;;;;;;5053910;28;20072;-66
2022/01/02 01:51:25;;;;;;;16.17;7.85;;;11.70;99.90;;;;;;5036200;28;20489;-66
2022/01/02 01:53:51;;;;;;;15.63;8.40;;;11.60;99.90;;;;;;5036001;28;20041;-66
2022/01/02 01:56:17;;;;;;;14.40;8.40;;;11.50;99.90;;;;;;5053099;28;20036;-66
2022/01/02 01:58:44;;;;;;;13.90;8.40;;;11.60;99.90;;;;;;5053492;28;20045;-66
2022/01/02 02:01:10;;;;;;;20.20;8.43;;;;;;;;;;5053836;28;20040;-66
2022/01/02 02:03:36;;;;;;;15.52;8.25;;;11.70;99.90;;;;;;5052398;28;20479;-66
2022/01/02 02:06:02;;;;;;;16.25;8.32;;;11.60;99.90;;;;;;5053142;28;20055;-66
2022/01/02 02:08:27;;;;;;;17.27;7.78;;;11.60;99.90;;;;;;5036089;28;20047;-66
2022/01/02 02:10:56;;;;;;;17.85;7.97;;;11.50;99.90;;;;;;5053308;28;20036;-66
2022/01/02 02:13:23;;;;;;;15.35;8.98;;;11.70;99.90;;;;;;5052940;28;20074;-66
2022/01/02 02:15:50;;;;;;;17.80;8.23;;;11.60;99.90;;;;;;5052844;28;20065;-66
2022/01/02 02:18:16;;;;;;;13.85;7.32;;;11.80;99.90;;;;;;5036322;28;20048;-65
2022/01/02 02:20:42;;;;;;;13.98;7.85;;;11.70;99.90;;;;;;5054368;28;20120;-66
2022/01/02 02:23:08;;;;;;;15.07;7.85;;;11.60;99.90;;;;;;5053977;28;20079;-66
2022/01/02 02:25:36;;;;;;;16.80;8.40;;;11.50;99.90;;;;;;5054005;28;20040;-66
2022/01/02 02:28:05;;;;;;;12.93;7.20;;;11.30;99.90;;;;;;5046079;28;20456;-65
2022/01/02 02:30:33;;;;;;;17.17;8.63;;;11.70;99.90;;;;;;5053842;28;20428;-66
2022/01/02 02:33:00;;;;;;;14.07;7.97;;;11.70;99.90;;;;;;5057574;28;20059;-66
2022/01/02 02:35:29;;;;;;;15.95;8.25;;;11.60;99.90;;;;;;5056844;28;20120;-65
2022/01/02 02:37:55;;;;;;;15.68;8.43;;;11.60;99.90;;;;;;5057878;28;20047;-66
2022/01/02 02:40:27;;;;;;;21.30;8.73;;;11.80;99.90;;;;;;5057053;28;20132;-66
2022/01/02 02:42:58;;;;;;;14.35;7.07;;;11.80;99.90;;;;;;5056782;28;20041;-66
2022/01/02 02:51:08;;;;;;;17.00;8.15;;;11.80;99.90;;;;;;5057444;28;20049;-66
2022/01/02 02:53:37;;;;;;;17.88;8.27;;;11.60;99.90;;;;;;5057560;28;20107;-66
2022/01/02 02:58:43;;;;;;;19.95;8.18;;;11.40;99.90;;;;;;5055994;28;20383;-66
2022/01/02 03:01:16;;;;;;;19.25;8.10;;;11.70;99.90;;;;;;5056041;28;20049;-66
2022/01/02 03:03:43;;;;;;;20.05;8.80;;;11.70;99.90;;;;;;5057977;28;20064;-66
2022/01/02 03:06:09;;;;;;;17.13;8.43;;;11.40;99.90;;;;;;5058099;28;20052;-66
2022/01/02 03:08:36;;;;;;;14.70;7.97;;;11.80;99.90;;;;;;5057085;28;20028;-66
2022/01/02 03:11:03;;;;;;;18.23;8.25;;;11.70;99.90;;;;;;5056281;28;20080;-66
2022/01/02 03:13:29;;;;;;;23.35;9.05;;;11.50;99.90;;;;;;5056715;28;20039;-65
2022/01/02 03:15:55;;;;;;;18.98;9.32;;;11.70;99.90;;;;;;5056527;28;20120;-66
2022/01/02 03:18:20;;;;;;;16.13;8.15;;;11.60;99.90;;;;;;5057760;28;20033;-66
2022/01/02 03:20:46;;;;;;;15.68;7.88;;;11.50;99.90;;;;;;5056738;28;20047;-66
2022/01/02 03:23:11;;;;;;;21.20;8.88;;;11.70;99.90;;;;;;5056948;28;20041;-66
2022/01/02 03:25:37;;;;;;;16.60;8.02;;;11.70;99.90;;;;;;5056567;28;20518;-66
2022/01/02 03:28:03;;;;;;;18.60;7.75;;;11.70;99.90;;;;;;5056392;28;20045;-66
2022/01/02 03:30:29;;;;;;;16.35;8.05;;;11.70;99.90;;;;;;5055110;28;20064;-66
2022/01/02 03:32:54;;;;;;;17.88;8.25;;;11.80;99.90;;;;;;5057304;28;20037;-66
2022/01/02 03:35:20;;;;;;;21.95;8.73;;;11.80;99.90;;;;;;5056133;28;20538;-65
2022/01/02 03:37:46;;;;;;;17.55;7.35;;;11.70;99.90;;;;;;5057152;28;20037;-66
2022/01/02 03:40:11;;;;;;;18.40;7.97;;;11.70;99.90;;;;;;5056609;28;20045;-66
2022/01/02 03:42:38;;;;;;;20.73;7.80;;;12.20;99.90;;;;;;5055062;28;20454;-65
2022/01/02 03:45:05;;;;;;;17.80;8.20;;;11.90;99.90;;;;;;5056667;28;20049;-66
2022/01/02 03:47:31;;;;;;;24.15;8.82;;;12.10;99.90;;;;;;5038489;28;20130;-66
2022/01/02 03:49:59;;;;;;;17.80;8.05;;;11.90;99.90;;;;;;5055889;28;20095;-66
2022/01/02 03:52:26;;;;;;;20.23;7.50;;;12.20;99.90;;;;;;5054947;28;20037;-65
2022/01/02 03:54:52;;;;;;;22.73;7.65;;;;;;;;;;5056529;28;20029;-66
2022/01/02 03:57:18;;;;;;;22.77;6.63;;;12.00;99.90;;;;;;5055686;28;20068;-65
2022/01/02 03:59:43;;;;;;;18.10;7.85;;;11.90;99.90;;;;;;5055704;28;20098;-65
2022/01/02 04:02:09;;;;;;;19.55;7.30;;;11.90;99.90;;;;;;5055288;28;20040;-66
2022/01/02 04:04:35;;;;;;;19.90;7.95;;;11.90;99.90;;;;;;5056249;28;20036;-66
2022/01/02 04:07:00;;;;;;;18.08;7.75;;;12.00;99.90;;;;;;5056844;28;20040;-66
2022/01/02 04:09:26;;;;;;;19.23;6.38;;;11.90;99.90;;;;;;5054489;28;20509;-66
2022/01/02 04:11:52;;;;;;;19.70;7.30;;;11.80;99.90;;;;;;5055099;28;20095;-66
2022/01/02 04:14:18;;;;;;;21.45;7.22;;;;;;;;;;5055955;28;20041;-66
2022/01/02 04:16:43;;;;;;;19.63;7.43;;;11.70;99.90;;;;;;5054484;28;20407;-67
2022/01/02 04:19:09;;;;;;;15.23;6.75;;;11.80;99.90;;;;;;5055840;28;20037;-66
2022/01/02 04:21:34;;;;;;;17.83;7.07;;;11.90;99.90;;;;;;5054404;28;20095;-66
2022/01/02 04:24:00;;;;;;;18.63;7.22;;;11.80;99.90;;;;;;5037582;28;20458;-66
2022/01/02 04:26:26;;;;;;;13.48;7.18;;;12.20;99.90;;;;;;5054410;28;20040;-66
2022/01/02 04:28:51;;;;;;;18.23;6.75;;;12.00;99.90;;;;;;5037376;28;20041;-66
2022/01/02 04:31:17;;;;;;;24.05;8.07;;;11.90;99.90;;;;;;5037537;28;20041;-66
2022/01/02 04:33:42;;;;;;;12.15;6.47;;;11.80;99.90;;;;;;5053917;28;20394;-66
2022/01/02 04:36:08;;;;;;;14.95;6.95;;;12.00;99.90;;;;;;5055230;28;20522;-66
2022/01/02 04:38:35;;;;;;;17.70;6.88;;;11.90;99.90;;;;;;5054334;28;20044;-66
2022/01/02 04:41:01;;;;;;;18.75;7.30;;;11.90;99.90;;;;;;5056776;28;20045;-66
2022/01/02 04:43:27;;;;;;;14.00;6.00;;;11.80;99.90;;;;;;5055372;28;20044;-66
2022/01/02 04:45:53;;;;;;;21.08;7.18;;;;;;;;;;5054882;28;20070;-68
2022/01/02 04:48:18;;;;;;;14.98;7.43;;;11.90;99.90;;;;;;5055577;28;20364;-66
2022/01/02 04:50:44;;;;;;;18.20;6.72;;;12.00;99.90;;;;;;5037894;28;20053;-66
2022/01/02 04:53:09;;;;;;;21.63;6.55;;;11.80;99.90;;;;;;5055113;28;20039;-66
2022/01/02 04:55:35;;;;;;;16.30;6.45;;;11.90;99.90;;;;;;5054121;28;20043;-66
2022/01/02 04:58:01;;;;;;;14.40;6.13;;;11.90;99.90;;;;;;5054025;28;20037;-66
2022/01/02 05:00:27;;;;;;;9.32;5.22;;;12.00;99.90;;;;;;5054360;28;20045;-66
2022/01/02 05:02:52;;;;;;;12.90;5.97;;;12.00;99.90;;;;;;5055653;28;20052;-66
2022/01/02 05:05:18;;;;;;;12.23;6.35;;;12.10;99.90;;;;;;5054318;28;20067;-66
2022/01/02 05:07:44;;;;;;;13.70;5.00;;;12.10;99.90;;;;;;5053707;28;20045;-66
2022/01/02 05:10:10;;;;;;;15.40;5.38;;;12.10;99.90;;;;;;5053495;28;20048;-66
2022/01/02 05:12:36;;;;;;;15.85;5.07;;;12.10;99.90;;;;;;5054866;28;20124;-66
2022/01/02 05:15:02;;;;;;;14.75;4.97;;;12.20;99.90;;;;;;5052951;28;20065;-66
2022/01/02 05:17:28;;;;;;;13.90;5.22;;;12.00;99.90;;;;;;5036921;28;20044;-66
2022/01/02 05:19:54;;;;;;;14.43;4.93;;;12.10;99.90;;;;;;5053902;28;20055;-66
2022/01/02 05:22:19;;;;;;;18.65;6.05;;;12.30;99.90;;;;;;5036352;28;20132;-66
2022/01/02 05:24:45;;;;;;;16.23;5.60;;;;;;;;;;5053124;28;20040;-66
2022/01/02 05:27:11;;;;;;;15.77;5.78;;;12.20;99.90;;;;;;5052731;28;20052;-66
2022/01/02 05:29:36;;;;;;;20.25;6.93;;;12.10;99.90;;;;;;5054033;28;20120;-65
2022/01/02 05:32:02;;;;;;;16.55;5.25;;;12.20;99.90;;;;;;5054305;28;20566;-66
2022/01/02 05:34:28;;;;;;;17.23;4.97;;;12.30;99.90;;;;;;5052799;28;20033;-66
2022/01/02 05:36:53;;;;;;;18.73;4.70;;;12.30;99.90;;;;;;5035795;28;20387;-66
2022/01/02 05:39:20;;;;;;;14.93;6.47;;;12.10;99.90;;;;;;5053884;28;20040;-66
2022/01/02 05:41:47;;;;;;;15.93;4.82;;;12.20;99.90;;;;;;5053619;28;20040;-66
2022/01/02 05:44:13;;;;;;;12.55;5.18;;;;;;;;;;5049104;28;20048;-69
2022/01/02 05:46:39;;;;;;;27.63;7.03;;;12.30;99.90;;;;;;5050233;28;20040;-66
2022/01/02 05:49:04;;;;;;;13.20;5.15;;;12.30;99.90;;;;;;5054254;28;20045;-66
2022/01/02 05:51:30;;;;;;;16.63;5.10;;;12.40;99.90;;;;;;5054911;28;20049;-67
2022/01/02 05:53:56;;;;;;;15.70;4.93;;;;;;;;;;5053443;28;20049;-67
2022/01/02 05:56:22;;;;;;;13.32;4.30;;;12.40;99.90;;;;;;5052882;28;20110;-66
2022/01/02 05:58:47;;;;;;;13.88;4.57;;;12.20;99.90;;;;;;5052474;28;20132;-67
2022/01/02 06:01:13;;;;;;;15.63;4.93;;;12.30;99.90;;;;;;5052882;28;20041;-66
2022/01/02 06:03:38;;;;;;;16.77;4.93;;;12.40;99.90;;;;;;5053378;28;20478;-66
2022/01/02 06:06:04;;;;;;;14.68;4.57;;;;;;;;;;5056159;28;20517;-66
2022/01/02 06:08:30;;;;;;;13.60;4.90;;;12.30;99.90;;;;;;5057797;28;20049;-66
2022/01/02 06:10:56;;;;;;;15.27;5.07;;;;;;;;;;5058406;28;20037;-66
2022/01/02 06:13:22;;;;;;;12.65;4.25;;;12.40;99.90;;;;;;5057917;28;20422;-67
2022/01/02 06:15:48;;;;;;;15.35;4.32;;;12.50;99.90;;;;;;5058305;28;20040;-67
2022/01/02 06:18:13;;;;;;;14.55;4.70;;;12.60;99.90;;;;;;5056959;28;20045;-66
2022/01/02 06:20:39;;;;;;;11.30;4.18;;;12.50;99.90;;;;;;5056954;28;20040;-67
2022/01/02 06:23:05;;;;;;;14.05;5.32;;;12.40;99.90;;;;;;5056024;28;20502;-66
2022/01/02 06:25:30;;;;;;;10.63;4.38;;;12.40;99.90;;;;;;5055667;28;20048;-66
2022/01/02 06:27:56;;;;;;;11.60;4.07;;;12.40;99.90;;;;;;5055536;28;20029;-66
2022/01/02 06:30:22;;;;;;;16.17;6.15;;;12.50;99.90;;;;;;5037783;28;20049;-66
2022/01/02 06:32:54;;;;;;;9.43;3.83;;;12.60;99.90;;;;;;5035752;28;20034;-65
2022/01/02 06:35:27;;;;;;;10.82;3.75;;;12.50;99.90;;;;;;5064759;28;20049;-66
2022/01/02 06:37:53;;;;;;;9.27;4.38;;;12.50;99.90;;;;;;5035368;28;20094;-66
2022/01/02 06:40:20;;;;;;;10.45;4.40;;;12.40;99.90;;;;;;5034156;28;20495;-66
2022/01/02 06:42:46;;;;;;;10.35;3.88;;;12.40;99.90;;;;;;5067370;28;20171;-66
2022/01/02 06:45:12;;;;;;;10.50;4.15;;;12.30;99.90;;;;;;5034390;28;20128;-67
2022/01/02 06:47:38;;;;;;;15.93;3.50;;;12.30;99.90;;;;;;5050623;28;20560;-66
2022/01/02 06:50:04;;;;;;;12.40;4.53;;;12.50;99.90;;;;;;5034964;28;20050;-66
2022/01/02 06:52:30;;;;;;;10.45;4.35;;;12.60;99.90;;;;;;5054991;28;20514;-66
2022/01/02 06:54:55;;;;;;;10.25;4.43;;;12.60;99.90;;;;;;5054069;28;20036;-66
2022/01/02 06:57:22;;;;;;;14.35;3.85;;;12.50;99.90;;;;;;5055000;28;20513;-66
2022/01/02 06:59:48;;;;;;;10.05;3.42;;;12.70;99.90;;;;;;5054088;28;20048;-67
2022/01/02 07:02:14;;;;;;;9.80;3.92;;;12.70;99.90;;;;;;5053884;28;20045;-66
2022/01/02 07:04:40;;;;;;;9.85;3.80;;;12.60;99.90;;;;;;5053328;28;20044;-66
2022/01/02 07:07:05;;;;;;;8.32;3.58;;;12.50;99.90;;;;;;5054998;28;20540;-66
2022/01/02 07:09:32;;;;;;;10.90;3.28;;;12.60;99.90;;;;;;5054861;28;20041;-66
2022/01/02 07:11:58;;;;;;;12.68;3.83;;;12.70;99.90;;;;;;5054762;28;20028;-66
2022/01/02 07:14:26;;;;;;;9.68;3.55;;;12.60;99.90;;;;;;5054939;28;20077;-66
2022/01/02 07:16:53;;;;;;;7.57;3.72;;;12.30;99.90;;;;;;5052638;28;20052;-66
2022/01/02 07:19:19;;;;;;;12.98;4.10;;;12.50;99.90;;;;;;5048589;28;20383;-66
2022/01/02 07:21:44;;;;;;;15.68;4.45;;;12.50;99.90;;;;;;5052916;28;20075;-65
2022/01/02 07:24:10;;;;;;;16.27;4.00;;;12.60;99.90;;;;;;5053363;28;20041;-65
2022/01/02 07:26:35;;;;;;;10.30;3.85;;;12.50;99.90;;;;;;5054909;28;20045;-66
2022/01/02 07:29:01;;;;;;;10.48;4.70;;;12.50;99.90;;;;;;5054776;28;20490;-66
2022/01/02 07:31:27;;;;;;;13.80;4.50;;;12.40;99.90;;;;;;5054100;28;20482;-65
2022/01/02 07:33:52;;;;;;;7.72;3.95;;;12.40;99.90;;;;;;5051280;28;20044;-66
2022/01/02 07:36:18;;;;;;;11.52;4.20;;;;;;;;;;5031302;28;20037;-66
2022/01/02 07:38:44;;;;;;;12.10;4.22;;;;;;;;;;5041258;28;20056;-66
2022/01/02 07:41:10;;;;;;;9.38;4.22;;;12.40;99.90;;;;;;5053427;28;20082;-67
2022/01/02 07:43:35;;;;;;;9.98;3.83;;;12.40;99.90;;;;;;5053070;28;20045;-67
2022/01/02 07:46:01;;;;;;;10.88;4.28;;;12.30;99.90;;;;;;5051827;28;20045;-66
2022/01/02 07:48:26;;;;;;;11.00;4.28;;;12.50;99.90;;;;;;5051785;28;20040;-66
2022/01/02 07:50:52;;;;;;;10.43;4.35;;;12.40;99.90;;;;;;5050918;28;20118;-66
2022/01/02 07:53:17;;;;;;;12.52;3.92;;;12.20;99.90;;;;;;5047358;28;20052;-66
2022/01/02 07:55:43;;;;;;;12.32;4.60;;;12.20;99.90;;;;;;5047291;28;20052;-66
2022/01/02 07:58:09;;;;;;;11.10;4.45;;;;;;;;;;5036645;28;20510;-68
2022/01/02 08:00:35;;;;;;;15.73;4.68;;;12.30;99.90;;;;;;5037994;28;20041;-66
2022/01/02 08:03:01;;;;;;;10.68;4.38;;;12.30;99.90;;;;;;5047716;28;20033;-67
2022/01/02 08:05:26;;;;;;;16.77;5.00;;;;;;;;;;5033853;28;20549;-68
2022/01/02 08:07:52;;;;;;;12.25;4.78;;;12.20;99.90;;;;;;5033131;28;20040;-66
2022/01/02 08:10:18;;;;;;;11.13;4.25;;;12.10;99.90;;;;;;5039197;28;20045;-66
2022/01/02 08:12:44;;;;;;;12.23;4.35;;;;;;;;;;5035874;28;20049;-67
2022/01/02 08:15:10;;;;;;;12.05;4.63;;;12.20;99.90;;;;;;5040455;28;20047;-66
2022/01/02 08:17:36;;;;;;;9.27;4.28;;;12.20;99.90;;;;;;5042476;28;20045;-67
2022/01/02 08:20:02;;;;;;;9.20;4.75;;;12.10;99.90;;;;;;5039437;28;20104;-67
2022/01/02 08:22:27;;;;;;;7.95;4.18;;;12.20;99.90;;;;;;5041499;28;20041;-67
2022/01/02 08:24:53;;;;;;;5.63;3.95;;;12.00;99.90;;;;;;5044348;28;20537;-68
2022/01/02 08:27:18;;;;;;;9.30;4.13;;;12.10;99.90;;;;;;5039987;28;20072;-66
2022/01/02 08:29:44;;;;;;;10.48;4.40;;;12.10;99.90;;;;;;5044643;28;20124;-66
2022/01/02 08:32:10;;;;;;;11.35;4.20;;;12.00;99.90;;;;;;5035773;28;20059;-67
2022/01/02 08:34:35;;;;;;;10.30;4.47;;;11.90;99.90;;;;;;5032860;28;20045;-65
2022/01/02 08:37:01;;;;;;;12.10;4.32;;;12.20;99.90;;;;;;5042064;28;20034;-65
2022/01/02 08:39:27;;;;;;;9.32;4.47;;;12.10;99.90;;;;;;5043511;28;20037;-66
2022/01/02 08:41:53;;;;;;;15.02;4.70;;;12.20;99.90;;;;;;5041100;28;20086;-66
2022/01/02 08:44:19;;;;;;;9.35;4.38;;;12.10;99.90;;;;;;5043666;28;20140;-67
2022/01/02 08:46:44;;;;;;;8.52;4.22;;;12.10;99.90;;;;;;5039602;28;20124;-65
2022/01/02 08:49:10;;;;;;;14.13;5.15;;;;;;;;;;5037962;28;20060;-68
2022/01/02 08:51:36;;;;;;;16.30;4.80;;;12.20;99.90;;;;;;5050032;28;20044;-69
2022/01/02 08:54:05;;;;;;;10.48;4.13;;;12.30;99.90;;;;;;5034143;28;20064;-74
2022/01/02 08:56:31;;;;;;;10.02;4.13;;;;;;;;;;5034887;28;20041;-69
2022/01/02 08:58:57;;;;;;;7.15;4.68;;;;;;;;;;5045652;28;20056;-67
2022/01/02 09:01:23;;;;;;;11.57;4.40;;;12.00;99.90;;;;;;5049879;28;20147;-69
2022/01/02 09:03:48;;;;;;;9.15;3.92;;;12.00;99.90;;;;;;5051110;28;20041;-68
2022/01/02 09:06:14;;;;;;;9.95;4.25;;;11.80;99.90;;;;;;5035840;28;20037;-68
2022/01/02 09:08:41;;;;;;;12.70;4.13;;;12.00;99.90;;;;;;5043351;28;20122;-67
2022/01/02 09:11:07;;;;;;;10.60;3.92;;;;;;;;;;5042560;28;20032;-69
2022/01/02 09:13:33;;;;;;;12.88;5.25;;;12.00;99.90;;;;;;5038478;28;20043;-68
2022/01/02 09:15:59;;;;;;;10.50;4.72;;;12.10;99.90;;;;;;5034682;28;20109;-67
2022/01/02 09:18:25;;;;;;;9.40;4.25;;;;;;;;;;5039287;28;20064;-69
2022/01/02 09:20:50;;;;;;;13.48;5.03;;;12.00;99.90;;;;;;5038251;28;20502;-70
2022/01/02 09:23:16;;;;;;;9.48;4.22;;;12.20;99.90;;;;;;5039097;28;20041;-68
2022/01/02 09:25:42;;;;;;;6.57;4.00;;;12.10;99.90;;;;;;5041781;28;20124;-66
2022/01/02 09:28:07;;;;;;;7.40;4.47;;;12.30;99.90;;;;;;5039458;28;20032;-68
2022/01/02 09:30:33;;;;;;;11.02;4.75;;;12.10;99.90;;;;;;5043132;28;20050;-70
2022/01/02 09:32:59;;;;;;;9.15;3.92;;;12.20;99.90;;;;;;5044563;28;20091;-68
2022/01/02 09:35:26;;;;;;;12.27;4.22;;;;;;;;;;5043369;28;20051;-66
2022/01/02 09:37:52;;;;;;;9.00;4.90;;;;;;;;;;5045466;28;20055;-68
2022/01/02 09:40:18;;;;;;;7.97;4.38;;;12.30;99.90;;;;;;5049524;28;20513;-67
2022/01/02 09:42:43;;;;;;;14.20;4.50;;;12.30;99.90;;;;;;5046414;28;20033;-66
2022/01/02 09:45:09;;;;;;;10.57;4.50;;;12.40;99.90;;;;;;5050978;28;20033;-66
2022/01/02 09:47:36;;;;;;;8.68;5.45;;;12.40;99.90;;;;;;5048190;28;20025;-66
2022/01/02 09:50:05;;;;;;;6.72;4.13;;;12.40;99.90;;;;;;5049861;28;20052;-66
2022/01/02 09:52:30;;;;;;;10.27;6.18;;;12.50;99.90;;;;;;5048712;28;20041;-66
2022/01/02 09:54:56;;;;;;;9.20;4.45;;;12.50;99.90;;;;;;5047851;28;20033;-68
2022/01/02 09:57:22;;;;;;;9.88;4.32;;;12.50;99.90;;;;;;5045381;28;20035;-66
2022/01/02 09:59:47;;;;;;;9.38;4.65;;;12.50;99.90;;;;;;5043535;28;20088;-69
2022/01/02 10:02:13;;;;;;;6.95;4.32;;;12.40;99.90;;;;;;5045002;28;20072;-69
2022/01/02 10:04:41;;;;;;;9.30;4.38;;;12.30;99.90;;;;;;5047334;28;20463;-70
2022/01/02 10:07:29;;;;;;;8.40;4.32;;;12.30;99.90;;;;;;5047883;28;20033;-70
2022/01/02 10:09:54;;;;;;;10.18;4.88;;;12.30;99.90;;;;;;5047101;28;20041;-67
2022/01/02 10:12:25;;;;;;;14.27;4.78;;;12.30;99.90;;;;;;5061263;28;20099;-69
2022/01/02 10:15:16;;;;;;;12.02;5.03;;;12.20;99.90;;;;;;5046529;28;20049;-68
2022/01/02 10:17:59;;;;;;;14.23;5.10;;;12.40;99.90;;;;;;5043368;28;20517;-68
2022/01/02 10:20:28;;;;;;;13.18;5.22;;;12.20;99.90;;;;;;5046328;28;20124;-69
2022/01/02 10:23:15;;;;;;;12.88;5.10;;;12.40;99.90;;;;;;5045623;28;20044;-67
2022/01/02 10:25:54;;;;;;;10.75;5.22;;;12.30;99.90;;;;;;5046573;28;20052;-67
2022/01/02 10:28:28;;;;;;;11.85;5.57;;;12.40;99.90;;;;;;5045662;28;20037;-68
2022/01/02 10:31:02;;;;;;;12.10;6.25;;;12.30;99.90;;;;;;5044758;28;20456;-66
2022/01/02 10:33:46;;;;;;;15.63;5.32;;;12.40;99.90;;;;;;5043722;28;20048;-68
2022/01/02 10:36:12;;;;;;;14.17;4.77;;;12.40;99.90;;;;;;5044142;28;20036;-67
2022/01/02 10:38:38;;;;;;;12.75;4.90;;;12.40;99.90;;;;;;5045566;28;20037;-72
2022/01/02 10:41:04;;;;;;;10.02;4.85;;;12.50;99.90;;;;;;5042436;28;20053;-68
2022/01/02 10:43:34;;;;;;;10.23;5.00;;;12.40;99.90;;;;;;5046064;28;20066;-67
2022/01/02 10:46:08;;;;;;;7.75;5.00;;;12.30;99.90;;;;;;5044144;28;20084;-67
2022/01/02 10:48:41;;;;;;;9.80;5.50;;;12.30;99.90;;;;;;5045987;28;20041;-69
2022/01/02 10:51:17;;;;;;;8.38;4.57;;;12.50;99.90;;;;;;5046867;28;20048;-66
2022/01/02 10:53:53;;;;;;;12.63;5.72;;;12.30;99.90;;;;;;5043330;28;20094;-65
2022/01/02 10:56:22;;;;;;;12.77;4.55;;;12.50;99.90;;;;;;5051609;28;20069;-66
2022/01/02 10:58:48;;;;;;;7.68;4.10;;;12.40;99.90;;;;;;5044640;28;20060;-68
2022/01/02 11:01:14;;;;;;;10.10;4.38;;;12.40;99.90;;;;;;5053641;28;20045;-67
2022/01/02 11:03:44;;;;;;;10.82;4.43;;;12.40;99.90;;;;;;5053413;28;20049;-67
2022/01/02 11:06:13;;;;;;;11.73;5.05;;;12.40;99.90;;;;;;5052122;28;20064;-67
2022/01/02 11:08:47;;;;;;;10.40;4.90;;;12.40;99.90;;;;;;5054494;28;20082;-66
2022/01/02 11:11:12;;;;;;;9.55;4.28;;;12.20;99.90;;;;;;5054485;28;20511;-67
2022/01/02 11:13:38;;;;;;;12.95;4.78;;;12.20;99.90;;;;;;5040351;28;20115;-66
2022/01/02 11:16:05;;;;;;;10.60;4.65;;;12.40;99.90;;;;;;5042075;28;20387;-67
2022/01/02 11:18:35;;;;;;;11.20;4.63;;;12.30;99.90;;;;;;5038131;28;20029;-67
2022/01/02 11:21:01;;;;;;;16.13;4.90;;;;;;;;;;5044276;28;20036;-70
2022/01/02 11:23:50;;;;;;;13.73;4.82;;;12.40;99.90;;;;;;5036168;28;20041;-65
2022/01/02 11:26:36;;;;;;;9.77;3.92;;;12.40;99.90;;;;;;5036231;28;20042;-66
2022/01/02 11:29:02;;;;;;;16.00;4.15;;;;;;;;;;5053852;28;20072;-71
2022/01/02 11:31:32;;;;;;;16.48;4.88;;;12.40;99.90;;;;;;5048950;28;20099;-66
2022/01/02 11:33:58;;;;;;;9.38;4.28;;;12.30;99.90;;;;;;5052652;28;20074;-67
2022/01/02 11:36:24;;;;;;;15.32;4.45;;;;;;;;;;5052325;28;20098;-69
2022/01/02 11:39:07;;;;;;;11.52;3.60;;;12.40;99.90;;;;;;5038211;28;20048;-66
2022/01/02 11:41:43;;;;;;;13.23;3.55;;;12.50;99.90;;;;;;5040341;28;20071;-67
2022/01/02 11:44:10;;;;;;;8.85;3.55;;;12.50;99.90;;;;;;5046460;28;20044;-69
2022/01/02 11:46:52;;;;;;;11.65;3.25;;;12.40;99.90;;;;;;5043750;28;20041;-66
2022/01/02 11:49:37;;;;;;;11.13;4.43;;;12.50;99.90;;;;;;5051298;28;20468;-66
2022/01/02 11:52:03;;;;;;;14.88;3.78;;;;;;;;;;5051799;28;20052;-66
2022/01/02 11:54:29;;;;;;;13.07;3.20;;;12.50;99.90;;;;;;5052853;28;20029;-66
2022/01/02 11:56:56;;;;;;;9.82;3.42;;;12.50;99.90;;;;;;5050178;28;20048;-65
2022/01/02 11:59:43;;;;;;;13.90;3.28;;;12.50;99.90;;;;;;5040271;28;20048;-66
2022/01/02 12:02:26;;;;;;;12.75;2.85;;;12.40;99.90;;;;;;5052155;28;20053;-66
2022/01/02 12:04:58;;;;;;;15.07;3.10;;;12.40;99.90;;;;;;5051303;28;20047;-67
2022/01/02 12:07:33;;;;;;;11.25;2.80;;;12.40;99.90;;;;;;5051789;28;20810;-67
2022/01/02 12:10:16;;;;;;;13.55;4.00;;;12.40;99.90;;;;;;5051895;28;20045;-66
2022/01/02 12:13:05;;;;;;;11.50;3.13;;;12.30;99.90;;;;;;5033165;28;20369;-65
2022/01/02 12:15:33;;;;;;;13.93;2.88;;;12.30;99.90;;;;;;5044129;28;20128;-67
2022/01/02 12:18:27;;;;;;;13.32;3.80;;;12.30;99.90;;;;;;5052017;28;20053;-66
2022/01/02 12:21:00;;;;;;;15.25;3.50;;;12.50;99.90;;;;;;5053264;28;20075;-66
2022/01/02 12:23:34;;;;;;;15.65;3.40;;;12.50;99.90;;;;;;5052972;28;20102;-66
2022/01/02 12:26:15;;;;;;;12.40;3.43;;;12.60;99.90;;;;;;5052148;28;20048;-67
2022/01/02 12:28:48;;;;;;;8.40;2.90;;;12.80;99.90;;;;;;5038625;28;20080;-67
2022/01/02 12:31:16;;;;;;;11.60;3.15;;;12.80;99.90;;;;;;5042991;28;20036;-68
2022/01/02 12:33:43;;;;;;;13.93;3.25;;;13.00;99.90;;;;;;5052826;28;20521;-65
2022/01/02 12:36:11;;;;;;;12.98;3.83;;;13.00;99.90;;;;;;5052706;28;20067;-67
2022/01/02 12:38:52;;;;;;;12.43;3.42;;;13.00;99.90;;;;;;5051919;28;20044;-66
2022/01/02 12:41:20;;;;;;;18.55;4.18;;;13.00;99.90;;;;;;5052974;28;20041;-66
2022/01/02 12:43:57;;;;;;;15.15;2.85;;;12.90;99.90;;;;;;5050966;28;20814;-68
2022/01/02 12:46:44;;;;;;;13.55;3.15;;;13.10;99.90;;;;;;5052505;28;20052;-66
2022/01/02 12:49:22;;;;;;;15.85;3.92;;;13.20;99.90;;;;;;5051144;28;20076;-64
2022/01/02 12:51:50;;;;;;;12.30;3.45;;;13.20;99.90;;;;;;5051441;28;20052;-66
2022/01/02 12:54:19;;;;;;;13.60;3.55;;;13.10;99.90;;;;;;5052289;28;20049;-67
2022/01/02 12:56:47;;;;;;;9.05;3.28;;;12.90;99.90;;;;;;5052459;28;20458;-66
2022/01/02 12:59:24;;;;;;;21.23;4.25;;;12.90;99.90;;;;;;5042037;28;20036;-66
2022/01/02 13:01:50;;;;;;;16.50;3.70;;;12.90;99.90;;;;;;5050672;28;20044;-67